createdAt,value
2022-08-25T00:00:55.843Z,22.50
2022-08-25T00:03:42.647Z,22.50
2022-08-25T00:06:29.727Z,22.50
2022-08-25T00:09:18.070Z,22.50
2022-08-25T00:12:05.219Z,22.50
2022-08-25T00:14:50.729Z,22.40
2022-08-25T00:17:36.135Z,22.30
2022-08-25T00:20:22.394Z,22.30
2022-08-25T00:23:07.813Z,22.30
2022-08-25T00:25:53.766Z,22.30
2022-08-25T00:28:39.686Z,22.30
2022-08-25T00:31:25.089Z,22.20
2022-08-25T00:34:33.935Z,22.20
2022-08-25T00:37:19.993Z,22.20
2022-08-25T00:40:06.715Z,22.20
2022-08-25T00:42:51.971Z,22.10
2022-08-25T00:45:37.521Z,22.10
2022-08-25T00:48:22.962Z,22.00
2022-08-25T00:51:11.601Z,22.00
2022-08-25T00:53:57.150Z,22.00
2022-08-25T00:56:43.769Z,22.00
2022-08-25T00:59:30.024Z,21.90
2022-08-25T01:02:15.466Z,21.90
2022-08-25T01:05:00.728Z,21.90
2022-08-25T01:07:46.675Z,21.90
2022-08-25T01:10:33.255Z,21.90
2022-08-25T01:13:33.702Z,21.90
2022-08-25T01:16:18.904Z,21.80
2022-08-25T01:19:07.272Z,21.80
2022-08-25T01:21:53.985Z,21.80
2022-08-25T01:24:59.406Z,21.80
2022-08-25T01:27:44.897Z,21.70
2022-08-25T01:30:30.348Z,21.70
2022-08-25T01:33:19.192Z,21.70
2022-08-25T01:36:05.428Z,21.70
2022-08-25T01:38:51.236Z,21.70
2022-08-25T01:42:06.979Z,21.70
2022-08-25T01:44:52.207Z,21.50
2022-08-25T01:47:37.882Z,21.50
2022-08-25T01:50:23.352Z,21.50
2022-08-25T01:53:19.658Z,21.50
2022-08-25T01:56:12.729Z,21.40
2022-08-25T01:58:57.805Z,21.40
2022-08-25T02:01:43.336Z,21.40
2022-08-25T02:04:32.250Z,21.50
2022-08-25T02:07:18.032Z,21.40
2022-08-25T02:10:05.632Z,21.40
2022-08-25T02:12:51.017Z,21.40
2022-08-25T02:15:44.463Z,21.40
2022-08-25T02:18:30.283Z,21.40
2022-08-25T02:21:15.750Z,21.40
2022-08-25T02:24:01.559Z,21.20
2022-08-25T02:26:46.903Z,21.20
2022-08-25T02:29:33.819Z,21.30
2022-08-25T02:32:19.350Z,21.20
2022-08-25T02:35:06.149Z,21.20
2022-08-25T02:37:53.515Z,21.20
2022-08-25T02:40:39.847Z,21.10
2022-08-25T02:43:26.701Z,21.20
2022-08-25T02:46:12.807Z,21.00
2022-08-25T02:48:57.920Z,21.00
2022-08-25T02:51:43.291Z,21.00
2022-08-25T02:54:28.727Z,21.10
2022-08-25T02:57:15.768Z,21.00
2022-08-25T03:00:00.890Z,21.00
2022-08-25T03:02:47.333Z,21.00
2022-08-25T03:05:33.664Z,21.00
2022-08-25T03:08:18.908Z,20.90
2022-08-25T03:11:05.397Z,20.90
2022-08-25T03:13:51.162Z,20.80
2022-08-25T03:16:36.627Z,20.80
2022-08-25T03:19:22.246Z,20.80
2022-08-25T03:22:07.442Z,20.90
2022-08-25T03:25:12.914Z,20.80
2022-08-25T03:27:58.179Z,20.80
2022-08-25T03:30:44.448Z,20.80
2022-08-25T03:33:30.504Z,20.70
2022-08-25T03:36:15.945Z,20.70
2022-08-25T03:39:01.229Z,20.80
2022-08-25T03:41:47.268Z,20.80
2022-08-25T03:44:33.525Z,20.80
2022-08-25T03:47:18.971Z,20.80
2022-08-25T03:50:06.289Z,20.80
2022-08-25T03:52:54.845Z,20.80
2022-08-25T03:55:40.976Z,20.70
2022-08-25T03:58:26.186Z,20.60
2022-08-25T04:01:11.918Z,20.60
2022-08-25T04:03:57.390Z,20.70
2022-08-25T04:06:44.173Z,20.70
2022-08-25T04:09:30.832Z,20.70
2022-08-25T04:12:17.553Z,20.70
2022-08-25T04:15:05.949Z,20.70
2022-08-25T04:17:51.980Z,20.60
2022-08-25T04:20:45.929Z,20.50
2022-08-25T04:23:32.381Z,20.50
2022-08-25T04:26:21.372Z,20.50
2022-08-25T04:29:09.877Z,20.50
2022-08-25T04:31:55.405Z,20.50
2022-08-25T04:34:41.824Z,20.40
2022-08-25T04:37:26.924Z,20.40
2022-08-25T04:40:12.565Z,20.30
2022-08-25T04:42:58.196Z,20.40
2022-08-25T04:45:43.551Z,20.40
2022-08-25T04:48:28.972Z,20.50
2022-08-25T04:51:17.295Z,20.40
2022-08-25T04:54:05.422Z,20.50
2022-08-25T04:56:54.323Z,20.50
2022-08-25T04:59:43.516Z,20.40
2022-08-25T05:02:29.008Z,20.40
2022-08-25T05:05:14.338Z,20.40
2022-08-25T05:07:59.948Z,20.40
2022-08-25T05:10:45.131Z,20.40
2022-08-25T05:13:30.932Z,20.40
2022-08-25T05:16:17.381Z,20.30
2022-08-25T05:19:02.689Z,20.40
2022-08-25T05:21:48.063Z,20.40
2022-08-25T05:24:33.308Z,20.40
2022-08-25T05:27:18.647Z,20.40
2022-08-25T05:30:04.499Z,20.40
2022-08-25T05:32:50.097Z,20.30
2022-08-25T05:35:36.172Z,20.40
2022-08-25T05:38:22.250Z,20.40
2022-08-25T05:41:15.376Z,20.50
2022-08-25T05:44:00.559Z,20.50
2022-08-25T05:46:47.187Z,20.50
2022-08-25T05:49:32.487Z,20.60
2022-08-25T05:52:20.167Z,20.50
2022-08-25T05:55:06.748Z,20.60
2022-08-25T05:57:51.740Z,20.60
2022-08-25T06:00:38.204Z,20.40
2022-08-25T06:03:23.599Z,20.50
2022-08-25T06:06:09.267Z,20.50
2022-08-25T06:08:54.673Z,20.60
2022-08-25T06:11:40.901Z,20.60
2022-08-25T06:14:27.377Z,20.70
2022-08-25T06:17:12.771Z,20.70
2022-08-25T06:19:58.084Z,20.70
2022-08-25T06:22:43.877Z,20.80
2022-08-25T06:25:32.611Z,20.80
2022-08-25T06:28:18.189Z,20.80
2022-08-25T06:31:04.014Z,20.90
2022-08-25T06:33:50.814Z,20.90
2022-08-25T06:36:36.112Z,21.00
2022-08-25T06:39:22.312Z,21.00
2022-08-25T06:42:07.463Z,21.00
2022-08-25T06:44:52.845Z,20.90
2022-08-25T06:47:38.234Z,20.90
2022-08-25T06:50:23.956Z,20.90
2022-08-25T06:53:09.407Z,21.00
2022-08-25T06:55:58.018Z,21.00
2022-08-25T06:58:43.250Z,21.00
2022-08-25T07:01:28.530Z,21.10
2022-08-25T07:04:17.340Z,21.10
2022-08-25T07:07:04.093Z,21.20
2022-08-25T07:09:49.245Z,21.20
2022-08-25T07:12:34.632Z,21.40
2022-08-25T07:15:21.012Z,21.50
2022-08-25T07:18:07.490Z,21.60
2022-08-25T07:20:53.872Z,21.60
2022-08-25T07:23:40.242Z,21.40
2022-08-25T07:26:43.678Z,21.50
2022-08-25T07:32:35.389Z,21.70
2022-08-25T07:35:23.979Z,21.90
2022-08-25T07:38:10.194Z,22.00
2022-08-25T07:41:02.613Z,22.00
2022-08-25T07:43:47.956Z,22.10
2022-08-25T07:46:35.228Z,22.20
2022-08-25T07:49:23.246Z,22.30
2022-08-25T07:52:09.257Z,22.40
2022-08-25T07:54:55.145Z,22.50
2022-08-25T07:57:41.105Z,22.60
2022-08-25T08:00:29.849Z,22.60
2022-08-25T08:03:35.316Z,22.80
2022-08-25T08:06:24.074Z,22.90
2022-08-25T08:09:09.461Z,23.00
2022-08-25T08:11:54.644Z,23.10
2022-08-25T08:14:45.091Z,23.20
2022-08-25T08:17:31.936Z,23.40
2022-08-25T08:20:17.739Z,23.50
2022-08-25T08:23:08.878Z,23.60
2022-08-25T08:25:54.275Z,23.70
2022-08-25T08:28:39.767Z,23.80
2022-08-25T08:31:28.338Z,23.80
2022-08-25T08:34:13.885Z,23.90
2022-08-25T08:37:00.277Z,24.10
2022-08-25T08:39:45.722Z,24.40
2022-08-25T08:42:46.986Z,24.50
2022-08-25T08:45:50.915Z,24.60
2022-08-25T08:48:40.980Z,24.90
2022-08-25T08:51:38.493Z,25.10
2022-08-25T08:54:28.770Z,25.20
2022-08-25T08:57:23.024Z,25.20
2022-08-25T09:00:09.352Z,25.10
2022-08-25T09:03:06.908Z,25.30
2022-08-25T09:05:56.287Z,25.50
2022-08-25T09:08:44.857Z,25.60
2022-08-25T09:12:09.041Z,25.50
2022-08-25T09:16:01.416Z,25.60
2022-08-25T09:18:58.109Z,26.00
2022-08-25T09:21:57.088Z,26.50
2022-08-25T09:24:52.315Z,26.80
2022-08-25T09:27:48.271Z,27.20
2022-08-25T09:30:49.009Z,27.00
2022-08-25T09:33:35.587Z,27.40
2022-08-25T09:36:21.160Z,27.50
2022-08-25T09:39:07.669Z,27.60
2022-08-25T09:42:00.261Z,27.80
2022-08-25T09:44:48.437Z,27.80
2022-08-25T09:47:44.297Z,27.70
2022-08-25T09:50:35.050Z,27.90
2022-08-25T09:53:21.710Z,27.90
2022-08-25T09:56:10.378Z,28.00
2022-08-25T09:59:21.284Z,27.80
2022-08-25T10:02:26.355Z,27.50
2022-08-25T10:05:21.001Z,27.70
2022-08-25T10:08:24.694Z,27.50
2022-08-25T10:11:28.971Z,27.20
2022-08-25T10:14:36.232Z,27.10
2022-08-25T10:17:31.679Z,26.90
2022-08-25T10:20:25.734Z,27.20
2022-08-25T10:23:15.045Z,27.20
2022-08-25T10:26:06.093Z,27.40
2022-08-25T10:29:25.897Z,27.60
2022-08-25T10:32:22.460Z,28.10
2022-08-25T10:35:20.301Z,28.60
2022-08-25T10:38:14.519Z,28.60
2022-08-25T10:41:58.888Z,28.50
2022-08-25T10:45:43.168Z,28.10
2022-08-25T10:48:50.123Z,28.70
2022-08-25T10:52:12.062Z,29.20
2022-08-25T10:55:11.869Z,29.30
2022-08-25T10:58:34.156Z,29.30
2022-08-25T11:01:36.663Z,29.40
2022-08-25T11:04:37.798Z,29.50
2022-08-25T11:07:34.456Z,29.40
2022-08-25T11:10:25.950Z,29.10
2022-08-25T11:13:31.633Z,29.10
2022-08-25T11:16:41.707Z,29.20
2022-08-25T11:19:38.843Z,29.20
2022-08-25T11:22:39.694Z,29.10
2022-08-25T11:25:38.250Z,29.00
2022-08-25T11:28:35.753Z,28.90
2022-08-25T11:31:23.092Z,28.90
2022-08-25T11:34:16.348Z,29.00
2022-08-25T11:37:22.942Z,29.20
2022-08-25T11:40:27.910Z,29.30
2022-08-25T11:43:52.513Z,29.20
2022-08-25T11:47:02.970Z,29.20
2022-08-25T11:50:04.560Z,29.40
2022-08-25T11:52:56.677Z,29.50
2022-08-25T11:55:53.921Z,29.90
2022-08-25T11:58:41.655Z,30.30
2022-08-25T12:01:43.113Z,30.30
2022-08-25T12:04:45.036Z,30.40
2022-08-25T12:08:13.495Z,30.40
2022-08-25T12:11:11.220Z,30.00
2022-08-25T12:14:40.886Z,29.90
2022-08-25T12:17:37.115Z,29.70
2022-08-25T12:20:53.580Z,29.60
2022-08-25T12:23:44.831Z,29.30
2022-08-25T12:26:36.494Z,29.30
2022-08-25T12:29:34.631Z,29.30
2022-08-25T12:32:41.068Z,29.30
2022-08-25T12:35:31.007Z,29.60
2022-08-25T12:38:49.571Z,30.00
2022-08-25T12:41:55.415Z,30.30
2022-08-25T12:44:48.605Z,30.90
2022-08-25T12:47:35.375Z,31.50
2022-08-25T12:50:38.856Z,32.10
2022-08-25T12:53:35.305Z,32.00
2022-08-25T12:56:27.388Z,31.70
2022-08-25T12:59:21.894Z,31.40
2022-08-25T13:02:39.775Z,31.00
2022-08-25T13:05:47.941Z,31.40
2022-08-25T13:09:00.475Z,31.80
2022-08-25T13:12:02.494Z,32.00
2022-08-25T13:14:54.373Z,32.40
2022-08-25T13:17:39.434Z,32.40
2022-08-25T13:20:29.093Z,32.60
2022-08-25T13:23:19.504Z,32.20
2022-08-25T13:26:06.474Z,31.50
2022-08-25T13:29:00.503Z,31.50
2022-08-25T13:32:09.355Z,31.40
2022-08-25T13:35:19.668Z,31.30
2022-08-25T13:38:16.575Z,31.40
2022-08-25T13:41:09.223Z,31.70
2022-08-25T13:43:55.905Z,31.80
2022-08-25T13:46:47.401Z,32.20
2022-08-25T13:49:32.593Z,32.50
2022-08-25T13:52:29.286Z,32.10
2022-08-25T13:55:27.471Z,32.10
2022-08-25T13:58:17.220Z,31.80
2022-08-25T14:01:22.927Z,31.70
2022-08-25T14:04:40.035Z,31.60
2022-08-25T14:07:38.328Z,31.60
2022-08-25T14:10:45.216Z,31.60
2022-08-25T14:13:32.560Z,31.60
2022-08-25T14:16:25.500Z,31.50
2022-08-25T14:19:19.832Z,31.20
2022-08-25T14:22:05.916Z,31.10
2022-08-25T14:24:52.978Z,30.90
2022-08-25T14:28:03.595Z,30.70
2022-08-25T14:30:58.433Z,30.80
2022-08-25T14:33:53.855Z,30.80
2022-08-25T14:36:38.946Z,30.80
2022-08-25T14:39:24.393Z,30.80
2022-08-25T14:42:10.060Z,30.80
2022-08-25T14:44:56.269Z,31.00
2022-08-25T14:47:42.483Z,31.40
2022-08-25T14:50:27.561Z,32.10
2022-08-25T14:53:13.155Z,32.20
2022-08-25T14:55:59.073Z,31.80
2022-08-25T14:58:50.985Z,31.40
2022-08-25T15:01:39.806Z,31.10
2022-08-25T15:04:28.260Z,31.10
2022-08-25T15:07:32.225Z,30.90
2022-08-25T15:10:18.432Z,30.80
2022-08-25T15:13:07.264Z,30.60
2022-08-25T15:15:53.247Z,30.50
2022-08-25T15:18:38.713Z,30.50
2022-08-25T15:21:23.869Z,30.50
2022-08-25T15:24:10.928Z,30.50
2022-08-25T15:26:59.836Z,30.50
2022-08-25T15:29:46.715Z,30.40
2022-08-25T15:32:32.425Z,30.30
2022-08-25T15:35:17.496Z,30.40
2022-08-25T15:38:02.828Z,30.30
2022-08-25T15:40:50.343Z,30.20
2022-08-25T15:43:35.943Z,30.20
2022-08-25T15:46:23.885Z,30.10
2022-08-25T15:49:09.495Z,30.50
2022-08-25T15:51:56.487Z,31.00
2022-08-25T15:54:43.223Z,31.50
2022-08-25T15:57:30.761Z,31.80
2022-08-25T16:00:17.010Z,32.20
2022-08-25T16:03:03.172Z,31.80
2022-08-25T16:05:48.975Z,32.10
2022-08-25T16:08:35.280Z,32.40
2022-08-25T16:11:27.603Z,32.40
2022-08-25T16:14:12.871Z,32.60
2022-08-25T16:16:59.801Z,32.10
2022-08-25T16:19:45.915Z,31.90
2022-08-25T16:22:31.236Z,31.80
2022-08-25T16:25:17.043Z,31.90
2022-08-25T16:28:03.029Z,31.90
2022-08-25T16:30:52.704Z,31.90
2022-08-25T16:33:39.670Z,31.70
2022-08-25T16:36:27.018Z,31.50
2022-08-25T16:39:12.722Z,31.30
2022-08-25T16:41:58.709Z,31.10
2022-08-25T16:44:44.776Z,30.90
2022-08-25T16:47:29.969Z,30.80
2022-08-25T16:50:16.110Z,30.70
2022-08-25T16:53:19.942Z,30.60
2022-08-25T16:56:11.545Z,30.40
2022-08-25T16:58:59.389Z,30.30
2022-08-25T17:01:44.989Z,30.10
2022-08-25T17:04:32.185Z,30.00
2022-08-25T17:07:23.736Z,29.90
2022-08-25T17:10:12.672Z,29.70
2022-08-25T17:12:58.531Z,29.60
2022-08-25T17:15:46.677Z,29.60
2022-08-25T17:18:32.953Z,29.50
2022-08-25T17:21:25.027Z,29.30
2022-08-25T17:24:11.175Z,29.20
2022-08-25T17:26:56.602Z,29.10
2022-08-25T17:29:43.397Z,29.00
2022-08-25T17:32:30.636Z,28.90
2022-08-25T17:35:15.850Z,28.80
2022-08-25T17:38:01.285Z,28.80
2022-08-25T17:40:48.033Z,28.70
2022-08-25T17:43:40.976Z,28.60
2022-08-25T17:46:26.769Z,28.60
2022-08-25T17:49:12.342Z,28.50
2022-08-25T17:51:58.112Z,28.40
2022-08-25T17:54:43.455Z,28.30
2022-08-25T17:57:28.867Z,28.20
2022-08-25T18:00:15.795Z,28.10
2022-08-25T18:03:03.988Z,28.00
2022-08-25T18:05:50.264Z,28.00
2022-08-25T18:08:36.065Z,28.00
2022-08-25T18:11:24.546Z,27.90
2022-08-25T18:14:11.344Z,27.90
2022-08-25T18:16:57.021Z,27.80
2022-08-25T18:19:42.560Z,27.70
2022-08-25T18:22:27.994Z,27.60
2022-08-25T18:25:15.342Z,27.50
2022-08-25T18:28:02.281Z,27.50
2022-08-25T18:30:48.151Z,27.40
2022-08-25T18:33:34.991Z,27.30
2022-08-25T18:36:21.099Z,27.20
2022-08-25T18:39:25.902Z,27.10
2022-08-25T18:42:11.100Z,27.10
2022-08-25T18:44:57.040Z,27.00
2022-08-25T18:47:42.571Z,26.90
2022-08-25T18:50:31.118Z,26.90
2022-08-25T18:53:17.637Z,26.90
2022-08-25T18:56:03.317Z,26.80
2022-08-25T18:58:48.799Z,26.70
2022-08-25T19:01:37.721Z,26.60
2022-08-25T19:04:28.520Z,26.60
2022-08-25T19:07:17.191Z,26.60
2022-08-25T19:10:02.485Z,26.60
2022-08-25T19:12:48.020Z,26.60
2022-08-25T19:15:37.529Z,26.50
2022-08-25T19:18:25.895Z,26.40
2022-08-25T19:21:14.169Z,26.40
2022-08-25T19:23:59.685Z,26.40
2022-08-25T19:26:45.678Z,26.30
2022-08-25T19:29:31.557Z,26.20
2022-08-25T19:32:18.262Z,26.20
2022-08-25T19:35:07.945Z,26.20
2022-08-25T19:37:53.973Z,26.10
2022-08-25T19:40:39.318Z,26.10
2022-08-25T19:43:24.521Z,25.90
2022-08-25T19:46:10.174Z,25.80
2022-08-25T19:48:55.602Z,25.80
2022-08-25T19:51:44.639Z,25.80
2022-08-25T19:54:33.302Z,25.80
2022-08-25T19:57:28.395Z,25.80
2022-08-25T20:00:32.524Z,25.80
2022-08-25T20:03:20.470Z,25.80
2022-08-25T20:06:06.727Z,25.70
2022-08-25T20:08:58.850Z,25.70
2022-08-25T20:11:46.007Z,25.60
2022-08-25T20:14:33.780Z,25.60
2022-08-25T20:17:24.342Z,25.60
2022-08-25T20:20:16.213Z,25.60
2022-08-25T20:23:20.138Z,25.50
2022-08-25T20:26:05.436Z,25.50
2022-08-25T20:28:50.946Z,25.40
2022-08-25T20:31:36.543Z,25.40
2022-08-25T20:34:21.965Z,25.40
2022-08-25T20:37:07.985Z,25.40
2022-08-25T20:39:53.700Z,25.40
2022-08-25T20:42:40.617Z,25.30
2022-08-25T20:45:25.950Z,25.20
2022-08-25T20:48:11.176Z,25.20
2022-08-25T20:50:57.684Z,25.20
2022-08-25T20:53:44.003Z,25.20
2022-08-25T20:56:32.333Z,25.20
2022-08-25T20:59:18.108Z,25.10
2022-08-25T21:02:05.120Z,25.10
2022-08-25T21:04:51.118Z,25.10
2022-08-25T21:07:36.475Z,25.00
2022-08-25T21:10:21.973Z,25.00
2022-08-25T21:13:07.458Z,25.10
2022-08-25T21:15:52.834Z,24.90
2022-08-25T21:18:38.181Z,24.90
2022-08-25T21:21:23.912Z,24.90
2022-08-25T21:24:11.733Z,24.90
2022-08-25T21:26:59.577Z,24.80
2022-08-25T21:29:55.078Z,24.80
2022-08-25T21:32:40.425Z,24.80
2022-08-25T21:35:40.672Z,24.80
2022-08-25T21:38:29.031Z,24.80
2022-08-25T21:41:19.505Z,24.80
2022-08-25T21:44:05.359Z,24.80
2022-08-25T21:46:54.149Z,24.80
2022-08-25T21:49:40.098Z,24.80
2022-08-25T21:52:25.591Z,24.80
2022-08-25T21:55:16.146Z,24.80
2022-08-25T21:58:01.915Z,24.80
2022-08-25T22:00:47.324Z,24.80
2022-08-25T22:03:33.553Z,24.80
2022-08-25T22:06:23.077Z,24.80
2022-08-25T22:09:10.785Z,24.80
2022-08-25T22:11:56.555Z,24.70
2022-08-25T22:14:42.043Z,24.70
2022-08-25T22:17:28.246Z,24.70
2022-08-25T22:20:15.656Z,24.50
2022-08-25T22:23:01.047Z,24.50
2022-08-25T22:25:46.475Z,24.50
2022-08-25T22:28:31.841Z,24.50
2022-08-25T22:31:20.656Z,24.40
2022-08-25T22:34:06.793Z,24.40
2022-08-25T22:36:52.299Z,24.30
2022-08-25T22:39:46.306Z,24.30
2022-08-25T22:42:31.889Z,24.30
2022-08-25T22:45:17.495Z,24.10
2022-08-25T22:48:04.931Z,24.20
2022-08-25T22:50:50.133Z,24.10
2022-08-25T22:53:37.189Z,24.10
2022-08-25T22:56:31.853Z,24.10
2022-08-25T22:59:17.029Z,24.00
2022-08-25T23:02:03.660Z,24.00
2022-08-25T23:04:49.028Z,23.90
2022-08-25T23:07:36.881Z,23.90
2022-08-25T23:10:25.475Z,23.90
2022-08-25T23:13:11.144Z,23.90
2022-08-25T23:16:05.740Z,23.80
2022-08-25T23:18:51.866Z,23.90
2022-08-25T23:21:56.813Z,23.90
2022-08-25T23:24:44.623Z,23.90
2022-08-25T23:27:30.017Z,23.80
2022-08-25T23:30:15.669Z,23.70
2022-08-25T23:33:01.365Z,23.90
2022-08-25T23:35:46.733Z,23.80
2022-08-25T23:38:32.503Z,23.70
2022-08-25T23:41:20.359Z,23.70
2022-08-25T23:44:05.981Z,23.70
2022-08-25T23:46:51.453Z,23.60
2022-08-25T23:49:37.902Z,23.60
2022-08-25T23:52:23.860Z,23.60
2022-08-25T23:55:09.985Z,23.60
2022-08-25T23:57:56.103Z,23.60
